createdAt,value
2022-08-03T00:01:40.847Z,100955.13
2022-08-03T00:04:08.721Z,100951.25
2022-08-03T00:06:37.242Z,100953.47
2022-08-03T00:09:05.399Z,100948.78
2022-08-03T00:11:33.143Z,100948.78
2022-08-03T00:14:00.879Z,100953.47
2022-08-03T00:16:28.389Z,100955.41
2022-08-03T00:18:55.853Z,100950.72
2022-08-03T00:21:23.363Z,100953.19
2022-08-03T00:23:52.783Z,100949.06
2022-08-03T00:26:23.196Z,100948.78
2022-08-03T00:28:50.719Z,100954.28
2022-08-03T00:31:22.299Z,100956.22
2022-08-03T00:34:06.097Z,100957.91
2022-08-03T00:36:34.305Z,100952.66
2022-08-03T00:39:01.775Z,100954.84
2022-08-03T00:41:29.198Z,100950.16
2022-08-03T00:43:56.712Z,100952.91
2022-08-03T00:46:24.167Z,100947.94
2022-08-03T00:48:54.740Z,100945.47
2022-08-03T00:51:22.239Z,100953.47
2022-08-03T00:53:49.926Z,100943.00
2022-08-03T00:56:17.493Z,100949.06
2022-08-03T00:58:45.332Z,100948.22
2022-08-03T01:01:13.062Z,100944.38
2022-08-03T01:03:40.940Z,100950.97
2022-08-03T01:06:25.448Z,100943.00
2022-08-03T01:08:54.863Z,100953.75
2022-08-03T01:12:01.731Z,100954.03
2022-08-03T01:14:54.436Z,100953.47
2022-08-03T01:17:39.323Z,100947.41
2022-08-03T01:20:11.017Z,100945.75
2022-08-03T01:23:00.843Z,100941.06
2022-08-03T01:25:56.456Z,100943.00
2022-08-03T01:28:54.480Z,100943.00
2022-08-03T01:31:24.077Z,100939.13
2022-08-03T01:33:57.398Z,100944.09
2022-08-03T01:36:26.583Z,100945.47
2022-08-03T01:38:55.296Z,100943.81
2022-08-03T01:41:27.103Z,100937.47
2022-08-03T01:44:26.392Z,100933.59
2022-08-03T01:46:47.716Z,100932.78
2022-08-03T01:49:17.802Z,100933.88
2022-08-03T01:52:02.737Z,100939.38
2022-08-03T01:54:39.245Z,100935.81
2022-08-03T01:57:06.692Z,100929.19
2022-08-03T01:59:34.973Z,100930.56
2022-08-03T02:02:28.779Z,100933.03
2022-08-03T02:04:50.660Z,100929.19
2022-08-03T02:07:18.063Z,100931.41
2022-08-03T02:09:51.035Z,100924.22
2022-08-03T02:12:18.728Z,100934.16
2022-08-03T02:14:46.493Z,100933.31
2022-08-03T02:17:13.955Z,100923.13
2022-08-03T02:19:42.587Z,100923.41
2022-08-03T02:22:11.126Z,100930.56
2022-08-03T02:24:38.740Z,100923.41
2022-08-03T02:27:08.196Z,100925.03
2022-08-03T02:29:39.965Z,100930.56
2022-08-03T02:32:13.847Z,100918.69
2022-08-03T02:34:42.482Z,100925.88
2022-08-03T02:37:10.379Z,100926.72
2022-08-03T02:39:37.809Z,100920.38
2022-08-03T02:42:05.536Z,100915.94
2022-08-03T02:44:33.767Z,100913.19
2022-08-03T02:47:03.809Z,100909.59
2022-08-03T02:49:40.652Z,100908.50
2022-08-03T02:52:20.061Z,100908.75
2022-08-03T02:54:47.700Z,100903.81
2022-08-03T02:57:15.155Z,100906.84
2022-08-03T02:59:42.725Z,100907.66
2022-08-03T03:02:10.314Z,100912.38
2022-08-03T03:04:37.996Z,100908.75
2022-08-03T03:07:14.904Z,100904.91
2022-08-03T03:09:43.338Z,100906.56
2022-08-03T03:12:11.488Z,100902.97
2022-08-03T03:14:39.007Z,100907.66
2022-08-03T03:17:09.989Z,100913.44
2022-08-03T03:19:37.424Z,100912.38
2022-08-03T03:22:04.947Z,100913.19
2022-08-03T03:24:32.332Z,100913.19
2022-08-03T03:26:59.748Z,100911.50
2022-08-03T03:29:27.268Z,100904.34
2022-08-03T03:31:57.117Z,100910.69
2022-08-03T03:34:24.490Z,100916.22
2022-08-03T03:36:51.950Z,100909.88
2022-08-03T03:39:19.346Z,100914.28
2022-08-03T03:41:46.815Z,100917.03
2022-08-03T03:44:14.197Z,100918.97
2022-08-03T03:46:41.640Z,100910.69
2022-08-03T03:49:09.146Z,100917.88
2022-08-03T03:51:36.686Z,100917.03
2022-08-03T03:54:05.830Z,100917.03
2022-08-03T03:56:33.273Z,100916.22
2022-08-03T03:59:00.815Z,100915.38
2022-08-03T04:01:28.366Z,100914.56
2022-08-03T04:03:55.883Z,100912.63
2022-08-03T04:06:41.974Z,100911.50
2022-08-03T04:09:27.836Z,100915.94
2022-08-03T04:11:55.415Z,100918.69
2022-08-03T04:14:32.102Z,100917.31
2022-08-03T04:17:01.801Z,100912.63
2022-08-03T04:19:46.835Z,100919.19
2022-08-03T04:22:16.683Z,100923.66
2022-08-03T04:24:49.167Z,100918.16
2022-08-03T04:27:18.288Z,100921.72
2022-08-03T04:29:48.608Z,100927.47
2022-08-03T04:32:17.083Z,100923.66
2022-08-03T04:34:44.688Z,100928.06
2022-08-03T04:37:13.961Z,100934.69
2022-08-03T04:39:42.308Z,100930.81
2022-08-03T04:42:09.861Z,100939.94
2022-08-03T04:44:39.060Z,100937.47
2022-08-03T04:47:06.806Z,100931.94
2022-08-03T04:49:36.153Z,100934.69
2022-08-03T04:52:04.243Z,100944.91
2022-08-03T04:54:32.245Z,100943.78
2022-08-03T04:56:59.742Z,100955.66
2022-08-03T04:59:27.182Z,100955.94
2022-08-03T05:01:54.706Z,100944.03
2022-08-03T05:04:23.057Z,100947.66
2022-08-03T05:06:55.190Z,100949.31
2022-08-03T05:09:49.994Z,100946.78
2022-08-03T05:12:10.806Z,100953.75
2022-08-03T05:14:38.899Z,100952.06
2022-08-03T05:17:06.433Z,100951.25
2022-08-03T05:19:33.903Z,100950.44
2022-08-03T05:22:01.409Z,100947.38
2022-08-03T05:24:28.828Z,100944.91
2022-08-03T05:26:56.313Z,100943.78
2022-08-03T05:29:23.771Z,100954.84
2022-08-03T05:31:51.179Z,100947.38
2022-08-03T05:34:18.592Z,100952.91
2022-08-03T05:36:46.005Z,100954.84
2022-08-03T05:39:13.447Z,100954.56
2022-08-03T05:41:40.899Z,100956.22
2022-08-03T05:44:08.361Z,100954.28
2022-08-03T05:46:35.779Z,100953.47
2022-08-03T05:49:03.339Z,100952.63
2022-08-03T05:51:30.774Z,100945.19
2022-08-03T05:53:58.184Z,100952.09
2022-08-03T05:56:25.658Z,100948.50
2022-08-03T05:58:53.453Z,100955.13
2022-08-03T06:01:23.678Z,100953.19
2022-08-03T06:03:54.110Z,100956.78
2022-08-03T06:06:21.595Z,100960.38
2022-08-03T06:08:49.200Z,100956.50
2022-08-03T06:11:16.665Z,100956.78
2022-08-03T06:13:44.133Z,100962.31
2022-08-03T06:16:11.628Z,100970.28
2022-08-03T06:18:39.125Z,100976.66
2022-08-03T06:21:14.552Z,100979.69
2022-08-03T06:23:54.335Z,100983.00
2022-08-03T06:26:24.812Z,100984.94
2022-08-03T06:28:54.280Z,100980.25
2022-08-03T06:31:32.767Z,100986.56
2022-08-03T06:34:34.145Z,100992.09
2022-08-03T06:36:52.271Z,100991.81
2022-08-03T06:39:23.345Z,100994.59
2022-08-03T06:41:52.235Z,100993.75
2022-08-03T06:44:19.946Z,100992.09
2022-08-03T06:46:47.811Z,101002.03
2022-08-03T06:49:15.220Z,100998.16
2022-08-03T06:52:03.031Z,101001.19
2022-08-03T06:54:33.192Z,101002.59
2022-08-03T06:57:01.185Z,101007.25
2022-08-03T07:00:08.894Z,101008.38
2022-08-03T07:02:18.918Z,101006.19
2022-08-03T07:04:48.503Z,101010.03
2022-08-03T07:07:15.980Z,101008.13
2022-08-03T07:09:55.706Z,101010.88
2022-08-03T07:12:29.515Z,101010.88
2022-08-03T07:15:00.724Z,101007.25
2022-08-03T07:17:33.580Z,101010.88
2022-08-03T07:20:02.059Z,101010.03
2022-08-03T07:22:29.544Z,101016.41
2022-08-03T07:24:57.049Z,101007.56
2022-08-03T07:27:26.798Z,101016.41
2022-08-03T07:29:55.299Z,101009.19
2022-08-03T07:32:23.894Z,101007.25
2022-08-03T07:34:51.451Z,101008.13
2022-08-03T07:37:18.894Z,101002.03
2022-08-03T07:39:46.346Z,101009.19
2022-08-03T07:42:14.114Z,101004.50
2022-08-03T07:44:41.684Z,101007.00
2022-08-03T07:47:09.263Z,101009.19
2022-08-03T07:49:41.152Z,101012.78
2022-08-03T07:52:28.534Z,101016.41
2022-08-03T07:54:56.117Z,101008.13
2022-08-03T07:57:23.864Z,101010.88
2022-08-03T08:00:01.442Z,101004.50
2022-08-03T08:02:40.497Z,101008.13
2022-08-03T08:05:08.149Z,101003.41
2022-08-03T08:07:35.608Z,101004.50
2022-08-03T08:10:03.446Z,101004.50
2022-08-03T08:12:30.880Z,101010.03
2022-08-03T08:14:58.570Z,101006.19
2022-08-03T08:17:26.055Z,101013.63
2022-08-03T08:19:53.726Z,101010.88
2022-08-03T08:22:28.055Z,101010.88
2022-08-03T08:24:59.356Z,101011.97
2022-08-03T08:27:26.942Z,101010.03
2022-08-03T08:29:58.853Z,101013.63
2022-08-03T08:32:30.094Z,101016.09
2022-08-03T08:34:57.885Z,101010.88
2022-08-03T08:37:25.301Z,101016.41
2022-08-03T08:39:52.747Z,101009.19
2022-08-03T08:42:20.211Z,101006.72
2022-08-03T08:44:47.638Z,101007.25
2022-08-03T08:47:15.339Z,101007.25
2022-08-03T08:49:58.228Z,101006.44
2022-08-03T08:52:32.146Z,101011.69
2022-08-03T08:55:04.203Z,101011.69
2022-08-03T08:57:42.790Z,101009.75
2022-08-03T09:00:14.120Z,101014.47
2022-08-03T09:02:45.139Z,101005.34
2022-08-03T09:05:13.676Z,101012.53
2022-08-03T09:07:42.253Z,101002.59
2022-08-03T09:10:13.479Z,101011.69
2022-08-03T09:12:51.580Z,101002.88
2022-08-03T09:15:26.840Z,101008.13
2022-08-03T09:17:55.800Z,101005.34
2022-08-03T09:20:24.069Z,101010.88
2022-08-03T09:22:52.040Z,101008.13
2022-08-03T09:25:24.737Z,101002.59
2022-08-03T09:27:52.446Z,100998.16
2022-08-03T09:30:34.686Z,101005.34
2022-08-03T09:33:04.195Z,100999.84
2022-08-03T09:38:27.393Z,100999.84
2022-08-03T09:40:59.447Z,100996.22
2022-08-03T09:43:28.535Z,100997.06
2022-08-03T09:46:03.658Z,100994.31
2022-08-03T09:48:31.767Z,100998.72
2022-08-03T09:51:13.867Z,100995.97
2022-08-03T09:53:58.442Z,100993.19
2022-08-03T09:56:43.221Z,100987.69
2022-08-03T09:59:13.202Z,100989.34
2022-08-03T10:01:41.934Z,100992.38
2022-08-03T10:04:14.975Z,100980.22
2022-08-03T10:06:46.765Z,100989.06
2022-08-03T10:09:15.783Z,100984.09
2022-08-03T10:11:44.260Z,100983.28
2022-08-03T10:14:19.028Z,100977.78
2022-08-03T10:16:47.489Z,100971.13
2022-08-03T10:19:15.815Z,100973.88
2022-08-03T10:21:50.911Z,100972.81
2022-08-03T10:24:22.714Z,100967.28
2022-08-03T10:26:50.409Z,100964.53
2022-08-03T10:29:21.469Z,100962.59
2022-08-03T10:31:57.328Z,100961.75
2022-08-03T10:34:31.804Z,100957.06
2022-08-03T10:36:59.359Z,100949.59
2022-08-03T10:39:30.669Z,100947.13
2022-08-03T10:42:02.467Z,100944.34
2022-08-03T10:44:33.729Z,100942.44
2022-08-03T10:47:01.529Z,100938.03
2022-08-03T10:49:34.411Z,100935.25
2022-08-03T10:52:13.183Z,100932.22
2022-08-03T10:55:10.835Z,100939.38
2022-08-03T10:57:46.429Z,100932.22
2022-08-03T11:00:17.920Z,100931.41
2022-08-03T11:03:07.153Z,100930.56
2022-08-03T11:05:36.443Z,100929.22
2022-08-03T11:08:39.129Z,100923.13
2022-08-03T11:11:18.310Z,100925.91
2022-08-03T11:14:03.263Z,100925.91
2022-08-03T11:16:33.016Z,100923.97
2022-08-03T11:19:01.320Z,100917.63
2022-08-03T11:21:53.297Z,100919.53
2022-08-03T11:24:43.708Z,100919.53
2022-08-03T11:27:21.046Z,100915.69
2022-08-03T11:30:08.401Z,100916.75
2022-08-03T11:32:38.598Z,100928.34
2022-08-03T11:35:12.739Z,100918.72
2022-08-03T11:38:01.455Z,100910.97
2022-08-03T11:40:49.682Z,100907.41
2022-08-03T11:43:30.676Z,100909.34
2022-08-03T11:46:09.021Z,100906.56
2022-08-03T11:48:37.865Z,100906.56
2022-08-03T11:51:06.802Z,100902.16
2022-08-03T11:53:34.280Z,100899.13
2022-08-03T11:56:13.006Z,100887.25
2022-08-03T11:59:01.385Z,100898.31
2022-08-03T12:01:40.433Z,100884.22
2022-08-03T12:04:10.379Z,100887.81
2022-08-03T12:06:56.055Z,100884.22
2022-08-03T12:09:23.520Z,100878.69
2022-08-03T12:12:00.742Z,100885.31
2022-08-03T12:14:50.786Z,100878.69
2022-08-03T12:17:17.358Z,100880.34
2022-08-03T12:19:45.428Z,100880.34
2022-08-03T12:22:13.647Z,100875.66
2022-08-03T12:24:47.637Z,100878.69
2022-08-03T12:27:25.356Z,100872.34
2022-08-03T12:29:58.401Z,100873.16
2022-08-03T12:32:27.490Z,100872.09
2022-08-03T12:34:55.590Z,100868.50
2022-08-03T12:37:23.744Z,100872.09
2022-08-03T12:40:00.407Z,100876.78
2022-08-03T12:42:32.688Z,100876.78
2022-08-03T12:45:00.096Z,100877.59
2022-08-03T12:47:27.575Z,100874.84
2022-08-03T12:49:55.039Z,100879.53
2022-08-03T12:52:22.747Z,100875.38
2022-08-03T12:55:00.057Z,100866.00
2022-08-03T12:57:47.688Z,100875.94
2022-08-03T13:00:29.087Z,100871.25
2022-08-03T13:03:38.418Z,100871.25
2022-08-03T13:05:48.875Z,100862.72
2022-08-03T13:08:23.689Z,100865.75
2022-08-03T13:10:51.189Z,100859.09
2022-08-03T13:13:20.869Z,100870.41
2022-08-03T13:15:48.428Z,100857.47
2022-08-03T13:18:17.530Z,100852.75
2022-08-03T13:20:45.649Z,100855.53
2022-08-03T13:23:15.461Z,100851.09
2022-08-03T13:25:55.339Z,100848.06
2022-08-03T13:28:23.604Z,100846.44
2022-08-03T13:30:53.558Z,100842.00
2022-08-03T13:33:21.068Z,100851.94
2022-08-03T13:35:48.511Z,100845.56
2022-08-03T13:38:16.021Z,100845.88
2022-08-03T13:40:46.074Z,100844.75
2022-08-03T13:43:16.884Z,100834.53
2022-08-03T13:45:49.395Z,100841.72
2022-08-03T13:48:37.229Z,100836.22
2022-08-03T13:51:11.765Z,100828.19
2022-08-03T13:53:51.223Z,100828.47
2022-08-03T13:56:19.734Z,100824.91
2022-08-03T13:58:47.186Z,100830.41
2022-08-03T14:01:14.713Z,100826.00
2022-08-03T14:03:42.185Z,100816.91
2022-08-03T14:06:09.888Z,100813.03
2022-08-03T14:08:37.286Z,100824.34
2022-08-03T14:11:04.780Z,100806.94
2022-08-03T14:13:32.175Z,100808.88
2022-08-03T14:15:59.637Z,100807.81
2022-08-03T14:18:27.745Z,100796.75
2022-08-03T14:20:59.632Z,100799.53
2022-08-03T14:23:32.606Z,100805.31
2022-08-03T14:26:00.331Z,100793.72
2022-08-03T14:28:28.683Z,100786.28
2022-08-03T14:30:56.199Z,100791.78
2022-08-03T14:33:23.800Z,100789.03
2022-08-03T14:35:51.429Z,100792.59
2022-08-03T14:38:19.044Z,100792.88
2022-08-03T14:40:46.515Z,100790.97
2022-08-03T14:43:14.387Z,100781.84
2022-08-03T14:45:42.029Z,100780.75
2022-08-03T14:50:34.185Z,100777.19
2022-08-03T14:50:57.143Z,100774.13
2022-08-03T14:53:24.697Z,100771.66
2022-08-03T14:55:53.353Z,100770.81
2022-08-03T14:58:25.274Z,100768.59
2022-08-03T15:00:53.735Z,100768.59
2022-08-03T15:03:23.749Z,100768.91
2022-08-03T15:05:57.915Z,100766.97
2022-08-03T15:08:25.777Z,100765.28
2022-08-03T15:10:54.266Z,100766.41
2022-08-03T15:13:21.807Z,100755.09
2022-08-03T15:15:49.922Z,100755.09
2022-08-03T15:18:17.530Z,100753.97
2022-08-03T15:20:46.551Z,100748.47
2022-08-03T15:23:17.901Z,100744.06
2022-08-03T15:26:27.851Z,100749.28
2022-08-03T15:28:33.103Z,100749.28
2022-08-03T15:31:01.040Z,100736.59
2022-08-03T15:33:29.122Z,100737.44
2022-08-03T15:35:57.035Z,100741.84
2022-08-03T15:38:25.894Z,100739.38
2022-08-03T15:40:57.000Z,100738.53
2022-08-03T15:43:24.877Z,100733.84
2022-08-03T15:46:18.928Z,100727.50
2022-08-03T15:48:40.555Z,100724.75
2022-08-03T15:51:08.121Z,100727.19
2022-08-03T15:53:35.581Z,100720.06
2022-08-03T15:56:09.683Z,100718.94
2022-08-03T15:59:10.193Z,100717.00
2022-08-03T16:01:26.553Z,100708.44
2022-08-03T16:03:56.520Z,100715.91
2022-08-03T16:06:35.061Z,100725.28
2022-08-03T16:09:05.530Z,100712.59
2022-08-03T16:11:50.699Z,100715.34
2022-08-03T16:14:32.223Z,100713.41
2022-08-03T16:17:05.520Z,100703.22
2022-08-03T16:19:32.978Z,100699.63
2022-08-03T16:22:01.053Z,100698.78
2022-08-03T16:24:28.568Z,100701.81
2022-08-03T16:26:56.483Z,100707.06
2022-08-03T16:29:24.226Z,100704.59
2022-08-03T16:31:52.638Z,100702.38
2022-08-03T16:34:20.494Z,100700.72
2022-08-03T16:36:48.042Z,100696.03
2022-08-03T16:39:15.639Z,100697.69
2022-08-03T16:41:54.208Z,100694.94
2022-08-03T16:44:29.572Z,100697.69
2022-08-03T16:46:57.560Z,100702.09
2022-08-03T16:49:54.909Z,100696.56
2022-08-03T16:52:13.010Z,100702.09
2022-08-03T16:54:40.857Z,100700.47
2022-08-03T16:57:31.815Z,100695.22
2022-08-03T16:59:55.849Z,100697.41
2022-08-03T17:02:26.426Z,100694.94
2022-08-03T17:04:54.961Z,100693.00
2022-08-03T17:07:22.938Z,100692.19
2022-08-03T17:09:50.909Z,100693.81
2022-08-03T17:12:25.977Z,100694.94
2022-08-03T17:14:54.600Z,100696.03
2022-08-03T17:17:47.503Z,100690.50
2022-08-03T17:20:19.835Z,100699.34
2022-08-03T17:23:02.131Z,100697.69
2022-08-03T17:25:39.700Z,100693.81
2022-08-03T17:28:43.100Z,100702.09
2022-08-03T17:31:23.255Z,100705.97
2022-08-03T17:33:58.528Z,100710.91
2022-08-03T17:36:47.725Z,100711.50
2022-08-03T17:39:16.610Z,100711.19
2022-08-03T17:41:49.064Z,100714.25
2022-08-03T17:44:33.193Z,100716.72
2022-08-03T17:47:06.747Z,100716.72
2022-08-03T17:49:40.203Z,100705.97
2022-08-03T17:52:31.431Z,100716.16
2022-08-03T17:55:55.379Z,100719.19
2022-08-03T17:58:02.101Z,100716.72
2022-08-03T18:00:51.532Z,100726.66
2022-08-03T18:03:56.989Z,100720.88
2022-08-03T18:06:31.648Z,100729.97
2022-08-03T18:09:05.399Z,100736.03
2022-08-03T18:11:51.360Z,100724.44
2022-08-03T18:14:31.593Z,100733.28
2022-08-03T18:17:10.410Z,100727.19
2022-08-03T18:20:03.656Z,100726.38
2022-08-03T18:22:26.958Z,100733.28
2022-08-03T18:24:55.857Z,100729.69
2022-08-03T18:27:23.429Z,100732.72
2022-08-03T18:30:12.288Z,100736.34
2022-08-03T18:32:39.807Z,100740.19
2022-08-03T18:35:13.624Z,100740.72
2022-08-03T18:40:31.069Z,100738.78
2022-08-03T18:42:58.671Z,100735.47
2022-08-03T18:45:57.681Z,100735.47
2022-08-03T18:48:50.331Z,100735.47
2022-08-03T18:51:28.892Z,100743.50
2022-08-03T18:54:58.987Z,100741.84
2022-08-03T18:57:12.737Z,100736.88
2022-08-03T18:59:53.549Z,100741.53
2022-08-03T19:02:49.886Z,100749.00
2022-08-03T19:05:22.147Z,100755.34
2022-08-03T19:07:58.021Z,100749.28
2022-08-03T19:10:30.876Z,100753.97
2022-08-03T19:13:20.356Z,100750.41
2022-08-03T19:15:58.355Z,100760.88
2022-08-03T19:18:28.784Z,100769.44
2022-08-03T19:20:56.306Z,100757.56
2022-08-03T19:23:30.813Z,100762.25
2022-08-03T19:26:01.724Z,100773.84
2022-08-03T19:28:29.991Z,100776.59
2022-08-03T19:30:58.480Z,100773.84
2022-08-03T19:33:29.973Z,100778.28
2022-08-03T19:35:57.589Z,100780.19
2022-08-03T19:38:29.048Z,100781.03
2022-08-03T19:41:01.048Z,100777.72
2022-08-03T19:43:52.713Z,100778.28
2022-08-03T19:46:22.611Z,100779.09
2022-08-03T19:49:14.634Z,100780.47
2022-08-03T19:52:00.635Z,100786.56
2022-08-03T19:54:53.919Z,100781.31
2022-08-03T19:57:27.194Z,100793.16
2022-08-03T19:59:55.452Z,100799.50
2022-08-03T20:02:26.458Z,100796.19
2022-08-03T20:04:56.613Z,100799.78
2022-08-03T20:07:25.293Z,100808.06
2022-08-03T20:09:56.413Z,100804.19
2022-08-03T20:12:28.735Z,100799.50
2022-08-03T20:14:57.447Z,100796.75
2022-08-03T20:17:57.007Z,100796.75
2022-08-03T20:20:13.100Z,100799.78
2022-08-03T20:22:43.247Z,100812.75
2022-08-03T20:25:38.455Z,100805.00
2022-08-03T20:28:13.881Z,100809.97
2022-08-03T20:30:43.306Z,100808.06
2022-08-03T20:33:11.136Z,100801.72
2022-08-03T20:35:38.569Z,100811.66
2022-08-03T20:38:09.477Z,100803.66
2022-08-03T20:40:38.210Z,100805.59
2022-08-03T20:43:09.333Z,100812.75
2022-08-03T20:46:00.647Z,100804.47
2022-08-03T20:48:25.877Z,100809.72
2022-08-03T20:50:55.363Z,100811.38
2022-08-03T20:53:57.264Z,100812.75
2022-08-03T20:56:10.249Z,100815.22
2022-08-03T20:58:37.767Z,100816.91
2022-08-03T21:01:09.202Z,100818.81
2022-08-03T21:03:40.547Z,100814.16
2022-08-03T21:06:12.274Z,100815.50
2022-08-03T21:08:46.993Z,100817.16
2022-08-03T21:11:17.928Z,100818.25
2022-08-03T21:12:58.651Z,100733.84
2022-08-03T21:14:03.088Z,100824.63
2022-08-03T21:16:32.492Z,100820.75
2022-08-03T21:19:00.048Z,100825.72
2022-08-03T21:21:29.204Z,100834.81
2022-08-03T21:23:56.803Z,100821.03
2022-08-03T21:26:24.873Z,100829.59
2022-08-03T21:28:54.051Z,100829.31
2022-08-03T21:31:25.627Z,100827.38
2022-08-03T21:33:55.567Z,100832.91
2022-08-03T21:36:23.539Z,100837.56
2022-08-03T21:38:56.348Z,100841.47
2022-08-03T21:41:28.588Z,100835.94
2022-08-03T21:43:56.053Z,100834.81
2022-08-03T21:46:23.619Z,100838.69
2022-08-03T21:48:55.189Z,100844.22
2022-08-03T21:51:24.498Z,100843.41
2022-08-03T21:54:02.230Z,100845.03
2022-08-03T21:56:38.156Z,100844.22
2022-08-03T21:59:07.690Z,100846.41
2022-08-03T22:01:35.992Z,100843.09
2022-08-03T22:04:07.398Z,100843.94
2022-08-03T22:06:42.345Z,100845.59
2022-08-03T22:09:09.782Z,100840.34
2022-08-03T22:11:37.870Z,100850.56
2022-08-03T22:14:05.322Z,100861.59
2022-08-03T22:16:33.016Z,100854.13
2022-08-03T22:19:00.470Z,100856.91
2022-08-03T22:21:35.859Z,100859.94
2022-08-03T22:24:05.151Z,100862.41
2022-08-03T22:26:35.738Z,100869.06
2022-08-03T22:29:06.483Z,100865.47
2022-08-03T22:31:57.395Z,100872.91
2022-08-03T22:34:26.323Z,100874.31
2022-08-03T22:36:57.329Z,100881.72
2022-08-03T22:39:29.070Z,100878.97
2022-08-03T22:41:57.861Z,100878.97
2022-08-03T22:44:26.254Z,100880.09
2022-08-03T22:46:53.738Z,100880.09
2022-08-03T22:49:21.610Z,100886.44
2022-08-03T22:51:50.816Z,100876.50
2022-08-03T22:54:18.259Z,100885.59
2022-08-03T22:56:49.967Z,100881.19
2022-08-03T22:59:41.468Z,100893.88
2022-08-03T23:02:20.073Z,100897.47
2022-08-03T23:04:56.326Z,100887.53
2022-08-03T23:07:29.740Z,100894.72
2022-08-03T23:10:16.010Z,100893.63
2022-08-03T23:12:47.644Z,100893.63
2022-08-03T23:15:18.025Z,100896.66
2022-08-03T23:17:58.575Z,100899.41
2022-08-03T23:20:26.861Z,100900.22
2022-08-03T23:22:57.711Z,100895.81
2022-08-03T23:25:25.261Z,100904.09
2022-08-03T23:28:05.128Z,100889.47
2022-08-03T23:30:34.871Z,100903.25
2022-08-03T23:33:02.423Z,100899.41
2022-08-03T23:36:28.778Z,100904.91
2022-08-03T23:38:36.348Z,100893.88
2022-08-03T23:41:04.736Z,100898.59
2022-08-03T23:43:51.339Z,100894.16
2022-08-03T23:46:23.734Z,100892.22
2022-08-03T23:48:51.411Z,100903.53
2022-08-03T23:51:40.958Z,100899.13
2022-08-03T23:54:27.029Z,100891.66
2022-08-03T23:57:00.015Z,100890.56
2022-08-03T23:59:49.857Z,100888.91
